sensor_id;sensor_type;location;lat;lon;timestamp;pressure;altitude;pressure_sealevel;temperature;humidity
34979;BME280;21185;50.978;13.720;2023-07-16T00:02:24;97704.75;;;25.77;42.72
34979;BME280;21185;50.978;13.720;2023-07-16T00:07:26;97722.56;;;25.77;43.35
34979;BME280;21185;50.978;13.720;2023-07-16T00:12:28;97754.72;;;25.75;44.01
34979;BME280;21185;50.978;13.720;2023-07-16T00:17:29;97773.06;;;25.72;44.89
34979;BME280;21185;50.978;13.720;2023-07-16T00:22:31;97890.25;;;25.65;45.65
34979;BME280;21185;50.978;13.720;2023-07-16T00:27:33;97895.56;;;25.60;46.89
34979;BME280;21185;50.978;13.720;2023-07-16T00:32:34;97936.47;;;25.59;47.43
34979;BME280;21185;50.978;13.720;2023-07-16T00:37:36;97938.59;;;25.62;48.59
34979;BME280;21185;50.978;13.720;2023-07-16T00:42:41;97955.91;;;25.65;49.29
34979;BME280;21185;50.978;13.720;2023-07-16T00:47:43;97969.97;;;25.65;49.42
34979;BME280;21185;50.978;13.720;2023-07-16T00:52:45;98007.41;;;25.64;49.56
34979;BME280;21185;50.978;13.720;2023-07-16T00:57:47;97996.25;;;25.62;50.11
34979;BME280;21185;50.978;13.720;2023-07-16T01:02:49;98000.75;;;25.56;51.19
34979;BME280;21185;50.978;13.720;2023-07-16T01:07:55;97991.19;;;25.50;51.76
34979;BME280;21185;50.978;13.720;2023-07-16T01:12:59;97980.84;;;25.48;52.20
34979;BME280;21185;50.978;13.720;2023-07-16T01:18:03;97948.44;;;25.46;52.02
34979;BME280;21185;50.978;13.720;2023-07-16T01:33:13;97905.13;;;25.46;51.53
34979;BME280;21185;50.978;13.720;2023-07-16T01:38:15;97893.72;;;25.45;51.65
34979;BME280;21185;50.978;13.720;2023-07-16T01:43:20;97905.94;;;25.46;51.67
34979;BME280;21185;50.978;13.720;2023-07-16T01:48:35;97930.91;;;25.45;51.47
34979;BME280;21185;50.978;13.720;2023-07-16T01:53:37;97920.00;;;25.42;51.63
34979;BME280;21185;50.978;13.720;2023-07-16T01:58:39;97924.53;;;25.36;51.94
34979;BME280;21185;50.978;13.720;2023-07-16T02:03:41;97931.97;;;25.34;51.87
34979;BME280;21185;50.978;13.720;2023-07-16T02:08:42;97919.75;;;25.33;51.35
34979;BME280;21185;50.978;13.720;2023-07-16T02:13:44;97989.06;;;25.27;51.97
34979;BME280;21185;50.978;13.720;2023-07-16T02:18:46;97972.31;;;25.11;52.82
34979;BME280;21185;50.978;13.720;2023-07-16T02:23:48;97977.31;;;24.97;53.21
34979;BME280;21185;50.978;13.720;2023-07-16T02:28:49;97970.34;;;24.86;53.42
34979;BME280;21185;50.978;13.720;2023-07-16T02:33:51;97970.88;;;24.78;53.98
34979;BME280;21185;50.978;13.720;2023-07-16T02:38:53;98015.41;;;24.71;53.95
34979;BME280;21185;50.978;13.720;2023-07-16T02:44:00;98024.94;;;24.62;55.12
34979;BME280;21185;50.978;13.720;2023-07-16T02:49:02;98047.44;;;24.54;55.36
34979;BME280;21185;50.978;13.720;2023-07-16T02:54:04;98057.69;;;24.40;56.50
34979;BME280;21185;50.978;13.720;2023-07-16T02:59:06;98086.75;;;24.25;57.44
34979;BME280;21185;50.978;13.720;2023-07-16T03:04:08;98110.22;;;24.11;57.98
34979;BME280;21185;50.978;13.720;2023-07-16T03:09:09;98099.28;;;24.03;58.36
34979;BME280;21185;50.978;13.720;2023-07-16T03:14:11;98073.56;;;23.98;58.59
34979;BME280;21185;50.978;13.720;2023-07-16T03:19:13;98097.63;;;23.92;58.43
34979;BME280;21185;50.978;13.720;2023-07-16T03:24:14;98117.22;;;23.90;58.19
34979;BME280;21185;50.978;13.720;2023-07-16T03:29:16;98136.25;;;23.87;58.37
34979;BME280;21185;50.978;13.720;2023-07-16T03:34:19;98110.53;;;23.83;58.82
34979;BME280;21185;50.978;13.720;2023-07-16T03:39:21;98098.22;;;23.72;59.41
34979;BME280;21185;50.978;13.720;2023-07-16T03:44:23;98090.75;;;23.64;60.44
34979;BME280;21185;50.978;13.720;2023-07-16T03:49:25;98068.94;;;23.56;60.93
34979;BME280;21185;50.978;13.720;2023-07-16T03:54:27;98061.69;;;23.47;61.86
34979;BME280;21185;50.978;13.720;2023-07-16T03:59:28;98039.66;;;23.41;62.53
34979;BME280;21185;50.978;13.720;2023-07-16T04:04:31;98035.34;;;23.35;63.48
34979;BME280;21185;50.978;13.720;2023-07-16T04:09:32;98028.16;;;23.31;64.16
34979;BME280;21185;50.978;13.720;2023-07-16T04:14:34;98031.06;;;23.29;63.77
34979;BME280;21185;50.978;13.720;2023-07-16T04:19:36;98017.56;;;23.31;63.58
34979;BME280;21185;50.978;13.720;2023-07-16T04:24:37;98026.06;;;23.33;63.40
34979;BME280;21185;50.978;13.720;2023-07-16T04:29:39;98034.56;;;23.35;63.30
34979;BME280;21185;50.978;13.720;2023-07-16T04:34:41;98043.78;;;23.32;63.90
34979;BME280;21185;50.978;13.720;2023-07-16T04:39:43;98046.69;;;23.31;64.00
34979;BME280;21185;50.978;13.720;2023-07-16T04:44:44;98029.75;;;23.32;64.27
34979;BME280;21185;50.978;13.720;2023-07-16T04:49:46;98043.53;;;23.34;64.08
34979;BME280;21185;50.978;13.720;2023-07-16T04:54:48;98078.50;;;23.36;64.23
34979;BME280;21185;50.978;13.720;2023-07-16T04:59:50;98061.81;;;23.35;64.24
34979;BME280;21185;50.978;13.720;2023-07-16T05:04:52;98060.22;;;23.34;64.34
34979;BME280;21185;50.978;13.720;2023-07-16T05:09:54;98019.72;;;23.34;64.54
34979;BME280;21185;50.978;13.720;2023-07-16T05:14:55;97990.09;;;23.37;64.11
34979;BME280;21185;50.978;13.720;2023-07-16T05:19:57;97968.41;;;23.40;63.73
34979;BME280;21185;50.978;13.720;2023-07-16T05:24:59;97974.00;;;23.43;63.21
34979;BME280;21185;50.978;13.720;2023-07-16T05:30:01;98007.66;;;23.48;62.99
34979;BME280;21185;50.978;13.720;2023-07-16T05:35:03;98022.25;;;23.50;62.86
34979;BME280;21185;50.978;13.720;2023-07-16T05:40:05;98028.59;;;23.49;63.05
34979;BME280;21185;50.978;13.720;2023-07-16T05:45:07;98039.44;;;23.48;63.48
34979;BME280;21185;50.978;13.720;2023-07-16T05:50:09;98053.22;;;23.50;63.70
34979;BME280;21185;50.978;13.720;2023-07-16T05:55:11;98053.53;;;23.53;63.73
34979;BME280;21185;50.978;13.720;2023-07-16T06:00:12;98057.59;;;23.61;63.68
34979;BME280;21185;50.978;13.720;2023-07-16T06:05:16;98066.44;;;23.72;63.60
34979;BME280;21185;50.978;13.720;2023-07-16T06:10:19;98081.94;;;23.85;63.76
34979;BME280;21185;50.978;13.720;2023-07-16T06:15:20;98120.72;;;23.96;64.08
34979;BME280;21185;50.978;13.720;2023-07-16T06:20:22;98132.09;;;23.97;64.51
34979;BME280;21185;50.978;13.720;2023-07-16T06:25:24;98142.66;;;23.92;64.53
34979;BME280;21185;50.978;13.720;2023-07-16T06:30:25;98148.22;;;23.90;64.64
34979;BME280;21185;50.978;13.720;2023-07-16T06:35:27;98149.00;;;23.90;64.73
34979;BME280;21185;50.978;13.720;2023-07-16T06:40:29;98153.31;;;23.97;64.88
34979;BME280;21185;50.978;13.720;2023-07-16T06:45:31;98149.69;;;24.08;65.08
34979;BME280;21185;50.978;13.720;2023-07-16T06:50:35;98148.59;;;24.04;65.09
34979;BME280;21185;50.978;13.720;2023-07-16T06:55:37;98158.34;;;23.98;65.38
34979;BME280;21185;50.978;13.720;2023-07-16T07:00:39;98165.97;;;23.89;65.57
34979;BME280;21185;50.978;13.720;2023-07-16T07:05:41;98163.91;;;23.97;65.44
34979;BME280;21185;50.978;13.720;2023-07-16T07:10:43;98171.78;;;24.18;65.54
34979;BME280;21185;50.978;13.720;2023-07-16T07:15:45;98171.66;;;24.30;65.21
34979;BME280;21185;50.978;13.720;2023-07-16T07:20:46;98181.38;;;24.25;64.50
34979;BME280;21185;50.978;13.720;2023-07-16T07:25:52;98187.09;;;24.38;63.73
34979;BME280;21185;50.978;13.720;2023-07-16T07:30:54;98181.34;;;24.46;62.37
34979;BME280;21185;50.978;13.720;2023-07-16T07:35:56;98183.81;;;24.58;61.50
34979;BME280;21185;50.978;13.720;2023-07-16T07:40:58;98200.63;;;24.74;61.32
34979;BME280;21185;50.978;13.720;2023-07-16T07:46:00;98193.34;;;24.96;60.49
34979;BME280;21185;50.978;13.720;2023-07-16T07:51:02;98203.97;;;24.96;59.21
34979;BME280;21185;50.978;13.720;2023-07-16T07:56:04;98210.91;;;24.97;59.03
34979;BME280;21185;50.978;13.720;2023-07-16T08:01:06;98202.69;;;24.99;58.14
34979;BME280;21185;50.978;13.720;2023-07-16T08:06:09;98207.63;;;24.90;57.19
34979;BME280;21185;50.978;13.720;2023-07-16T08:11:13;98203.59;;;24.82;56.72
34979;BME280;21185;50.978;13.720;2023-07-16T08:16:15;98195.66;;;24.82;56.38
34979;BME280;21185;50.978;13.720;2023-07-16T08:21:18;98211.31;;;24.84;55.91
34979;BME280;21185;50.978;13.720;2023-07-16T08:26:22;98209.84;;;24.98;55.97
34979;BME280;21185;50.978;13.720;2023-07-16T08:31:24;98231.47;;;25.22;55.58
34979;BME280;21185;50.978;13.720;2023-07-16T08:36:26;98237.50;;;25.60;54.32
34979;BME280;21185;50.978;13.720;2023-07-16T08:41:28;98232.00;;;25.71;53.35
34979;BME280;21185;50.978;13.720;2023-07-16T08:46:30;98234.38;;;25.68;53.80
34979;BME280;21185;50.978;13.720;2023-07-16T08:51:32;98234.06;;;25.64;54.24
34979;BME280;21185;50.978;13.720;2023-07-16T08:56:36;98238.66;;;25.79;54.47
34979;BME280;21185;50.978;13.720;2023-07-16T09:01:38;98226.19;;;25.85;53.49
34979;BME280;21185;50.978;13.720;2023-07-16T09:06:39;98232.06;;;25.97;53.09
34979;BME280;21185;50.978;13.720;2023-07-16T09:11:46;98240.09;;;26.32;52.82
34979;BME280;21185;50.978;13.720;2023-07-16T09:16:51;98255.50;;;26.30;53.17
34979;BME280;21185;50.978;13.720;2023-07-16T09:21:54;98261.06;;;26.24;53.31
34979;BME280;21185;50.978;13.720;2023-07-16T09:26:56;98250.66;;;26.07;52.81
34979;BME280;21185;50.978;13.720;2023-07-16T09:31:59;98260.22;;;25.93;51.16
34979;BME280;21185;50.978;13.720;2023-07-16T09:37:03;98263.66;;;25.83;51.14
34979;BME280;21185;50.978;13.720;2023-07-16T09:42:06;98257.53;;;25.77;50.88
34979;BME280;21185;50.978;13.720;2023-07-16T09:47:08;98259.38;;;25.72;50.38
34979;BME280;21185;50.978;13.720;2023-07-16T09:52:09;98270.00;;;25.72;49.32
34979;BME280;21185;50.978;13.720;2023-07-16T09:57:11;98272.13;;;25.70;49.15
34979;BME280;21185;50.978;13.720;2023-07-16T10:02:16;98273.91;;;25.64;47.16
34979;BME280;21185;50.978;13.720;2023-07-16T10:07:21;98281.22;;;25.84;45.35
34979;BME280;21185;50.978;13.720;2023-07-16T10:12:24;98266.59;;;26.02;44.71
34979;BME280;21185;50.978;13.720;2023-07-16T10:17:27;98278.31;;;26.01;44.70
34979;BME280;21185;50.978;13.720;2023-07-16T10:22:42;98283.34;;;25.92;44.69
34979;BME280;21185;50.978;13.720;2023-07-16T10:27:45;98278.84;;;26.03;44.81
34979;BME280;21185;50.978;13.720;2023-07-16T10:32:47;98289.25;;;26.25;44.84
34979;BME280;21185;50.978;13.720;2023-07-16T10:37:49;98281.09;;;26.46;44.65
34979;BME280;21185;50.978;13.720;2023-07-16T10:42:52;98289.63;;;26.64;44.25
34979;BME280;21185;50.978;13.720;2023-07-16T10:47:54;98288.81;;;26.68;42.90
34979;BME280;21185;50.978;13.720;2023-07-16T10:52:56;98275.50;;;26.73;42.34
34979;BME280;21185;50.978;13.720;2023-07-16T10:57:58;98279.78;;;26.79;41.29
34979;BME280;21185;50.978;13.720;2023-07-16T11:03:00;98279.78;;;26.74;41.25
34979;BME280;21185;50.978;13.720;2023-07-16T11:08:02;98281.09;;;26.77;41.15
34979;BME280;21185;50.978;13.720;2023-07-16T11:13:04;98279.50;;;26.81;41.13
34979;BME280;21185;50.978;13.720;2023-07-16T11:18:06;98295.47;;;26.86;41.24
34979;BME280;21185;50.978;13.720;2023-07-16T11:23:10;98282.97;;;27.02;41.13
34979;BME280;21185;50.978;13.720;2023-07-16T11:28:12;98283.75;;;27.18;40.98
34979;BME280;21185;50.978;13.720;2023-07-16T11:33:17;98288.25;;;27.27;41.18
34979;BME280;21185;50.978;13.720;2023-07-16T11:38:18;98279.19;;;27.33;41.36
34979;BME280;21185;50.978;13.720;2023-07-16T11:43:20;98270.41;;;27.28;40.96
34979;BME280;21185;50.978;13.720;2023-07-16T11:48:22;98266.13;;;27.32;41.30
34979;BME280;21185;50.978;13.720;2023-07-16T11:53:24;98267.19;;;27.36;41.05
34979;BME280;21185;50.978;13.720;2023-07-16T11:58:26;98260.28;;;27.30;40.55
34979;BME280;21185;50.978;13.720;2023-07-16T12:03:27;98257.91;;;27.23;40.50
34979;BME280;21185;50.978;13.720;2023-07-16T12:08:29;98264.06;;;27.14;39.98
34979;BME280;21185;50.978;13.720;2023-07-16T12:13:31;98257.94;;;27.13;40.47
34979;BME280;21185;50.978;13.720;2023-07-16T12:18:33;98260.84;;;27.22;40.63
34979;BME280;21185;50.978;13.720;2023-07-16T12:23:34;98256.84;;;27.24;40.66
34979;BME280;21185;50.978;13.720;2023-07-16T12:28:36;98255.47;;;27.32;40.75
34979;BME280;21185;50.978;13.720;2023-07-16T12:33:38;98250.44;;;27.25;40.12
34979;BME280;21185;50.978;13.720;2023-07-16T12:38:40;98263.50;;;27.27;39.80
34979;BME280;21185;50.978;13.720;2023-07-16T12:43:42;98238.97;;;27.35;39.93
34979;BME280;21185;50.978;13.720;2023-07-16T12:48:43;98247.44;;;27.47;40.09
34979;BME280;21185;50.978;13.720;2023-07-16T12:53:45;98244.22;;;27.55;39.81
34979;BME280;21185;50.978;13.720;2023-07-16T12:58:48;98244.47;;;27.59;39.93
34979;BME280;21185;50.978;13.720;2023-07-16T13:03:50;98234.06;;;27.57;39.76
34979;BME280;21185;50.978;13.720;2023-07-16T13:08:52;98237.25;;;27.69;39.91
34979;BME280;21185;50.978;13.720;2023-07-16T13:13:53;98236.72;;;27.72;39.59
34979;BME280;21185;50.978;13.720;2023-07-16T13:18:55;98233.22;;;27.77;39.67
34979;BME280;21185;50.978;13.720;2023-07-16T13:23:57;98223.31;;;27.83;39.79
34979;BME280;21185;50.978;13.720;2023-07-16T13:28:59;98232.84;;;27.94;40.09
34979;BME280;21185;50.978;13.720;2023-07-16T13:34:01;98229.09;;;28.00;39.98
34979;BME280;21185;50.978;13.720;2023-07-16T13:39:03;98222.41;;;28.02;39.85
34979;BME280;21185;50.978;13.720;2023-07-16T13:44:06;98237.81;;;28.11;40.07
34979;BME280;21185;50.978;13.720;2023-07-16T13:49:11;98234.41;;;28.05;39.59
34979;BME280;21185;50.978;13.720;2023-07-16T13:54:13;98238.41;;;28.02;39.07
34979;BME280;21185;50.978;13.720;2023-07-16T13:59:15;98228.53;;;28.03;38.89
34979;BME280;21185;50.978;13.720;2023-07-16T14:04:18;98228.28;;;27.99;39.04
34979;BME280;21185;50.978;13.720;2023-07-16T14:09:19;98232.78;;;28.09;38.75
34979;BME280;21185;50.978;13.720;2023-07-16T14:14:21;98224.25;;;28.07;38.69
34979;BME280;21185;50.978;13.720;2023-07-16T14:19:24;98216.16;;;28.22;38.67
34979;BME280;21185;50.978;13.720;2023-07-16T14:24:25;98223.03;;;28.33;38.81
34979;BME280;21185;50.978;13.720;2023-07-16T14:29:27;98222.44;;;28.42;38.62
34979;BME280;21185;50.978;13.720;2023-07-16T14:34:30;98230.63;;;28.50;38.15
34979;BME280;21185;50.978;13.720;2023-07-16T14:39:32;98235.66;;;28.57;38.00
34979;BME280;21185;50.978;13.720;2023-07-16T14:44:34;98226.63;;;28.53;37.93
34979;BME280;21185;50.978;13.720;2023-07-16T14:49:36;98224.69;;;28.58;37.61
34979;BME280;21185;50.978;13.720;2023-07-16T14:54:38;98219.34;;;28.58;38.09
34979;BME280;21185;50.978;13.720;2023-07-16T14:59:40;98212.44;;;28.57;38.33
34979;BME280;21185;50.978;13.720;2023-07-16T15:04:42;98206.75;;;28.64;37.72
34979;BME280;21185;50.978;13.720;2023-07-16T15:09:45;98202.44;;;28.68;37.58
34979;BME280;21185;50.978;13.720;2023-07-16T15:14:47;98204.56;;;28.71;37.64
34979;BME280;21185;50.978;13.720;2023-07-16T15:19:49;98216.56;;;28.74;37.45
34979;BME280;21185;50.978;13.720;2023-07-16T15:24:51;98203.25;;;28.68;36.39
34979;BME280;21185;50.978;13.720;2023-07-16T15:29:53;98197.69;;;28.65;36.26
34979;BME280;21185;50.978;13.720;2023-07-16T15:34:54;98197.75;;;28.55;36.32
34979;BME280;21185;50.978;13.720;2023-07-16T15:39:56;98201.06;;;28.42;36.28
34979;BME280;21185;50.978;13.720;2023-07-16T15:45:00;98200.09;;;28.32;36.25
34979;BME280;21185;50.978;13.720;2023-07-16T15:50:03;98202.84;;;28.22;36.08
34979;BME280;21185;50.978;13.720;2023-07-16T15:55:05;98204.16;;;28.20;36.20
34979;BME280;21185;50.978;13.720;2023-07-16T16:00:08;98200.97;;;28.23;36.46
34979;BME280;21185;50.978;13.720;2023-07-16T16:05:16;98197.75;;;28.26;36.45
34979;BME280;21185;50.978;13.720;2023-07-16T16:10:17;98190.81;;;28.25;35.88
34979;BME280;21185;50.978;13.720;2023-07-16T16:15:19;98204.66;;;28.22;35.60
34979;BME280;21185;50.978;13.720;2023-07-16T16:20:21;98199.88;;;28.19;35.59
34979;BME280;21185;50.978;13.720;2023-07-16T16:25:23;98203.41;;;28.14;35.67
34979;BME280;21185;50.978;13.720;2023-07-16T16:30:25;98203.94;;;28.11;35.76
34979;BME280;21185;50.978;13.720;2023-07-16T16:35:26;98204.50;;;28.08;36.08
34979;BME280;21185;50.978;13.720;2023-07-16T16:40:28;98208.25;;;28.07;35.89
34979;BME280;21185;50.978;13.720;2023-07-16T16:45:30;98212.53;;;28.03;35.75
34979;BME280;21185;50.978;13.720;2023-07-16T16:50:33;98212.56;;;27.98;35.63
34979;BME280;21185;50.978;13.720;2023-07-16T16:55:34;98216.34;;;27.92;35.48
34979;BME280;21185;50.978;13.720;2023-07-16T17:00:36;98215.28;;;27.88;35.70
34979;BME280;21185;50.978;13.720;2023-07-16T17:05:39;98218.50;;;27.85;35.78
34979;BME280;21185;50.978;13.720;2023-07-16T17:10:41;98218.53;;;27.80;35.81
34979;BME280;21185;50.978;13.720;2023-07-16T17:15:45;98229.75;;;27.77;35.97
34979;BME280;21185;50.978;13.720;2023-07-16T17:20:48;98236.44;;;27.74;35.95
34979;BME280;21185;50.978;13.720;2023-07-16T17:25:49;98242.31;;;27.71;36.06
34979;BME280;21185;50.978;13.720;2023-07-16T17:30:51;98243.09;;;27.71;36.01
34979;BME280;21185;50.978;13.720;2023-07-16T17:35:54;98234.06;;;27.67;35.80
34979;BME280;21185;50.978;13.720;2023-07-16T17:40:56;98241.00;;;27.63;35.96
34979;BME280;21185;50.978;13.720;2023-07-16T17:45:58;98248.19;;;27.58;35.91
34979;BME280;21185;50.978;13.720;2023-07-16T17:51:02;98246.34;;;27.53;35.72
34979;BME280;21185;50.978;13.720;2023-07-16T17:56:04;98250.09;;;27.47;35.87
34979;BME280;21185;50.978;13.720;2023-07-16T18:01:06;98253.84;;;27.41;35.62
34979;BME280;21185;50.978;13.720;2023-07-16T18:06:08;98248.53;;;27.36;35.90
34979;BME280;21185;50.978;13.720;2023-07-16T18:11:10;98259.47;;;27.29;36.05
34979;BME280;21185;50.978;13.720;2023-07-16T18:16:12;98273.09;;;27.23;35.96
34979;BME280;21185;50.978;13.720;2023-07-16T18:21:15;98260.31;;;27.15;36.11
34979;BME280;21185;50.978;13.720;2023-07-16T18:26:28;98261.94;;;27.05;36.42
34979;BME280;21185;50.978;13.720;2023-07-16T18:31:31;98267.00;;;26.97;36.46
34979;BME280;21185;50.978;13.720;2023-07-16T18:36:34;98276.56;;;26.88;36.79
34979;BME280;21185;50.978;13.720;2023-07-16T18:41:35;98276.84;;;26.81;36.80
34979;BME280;21185;50.978;13.720;2023-07-16T18:46:37;98279.50;;;26.76;36.60
34979;BME280;21185;50.978;13.720;2023-07-16T18:51:42;98277.63;;;26.71;36.59
34979;BME280;21185;50.978;13.720;2023-07-16T18:56:44;98285.88;;;26.65;36.46
34979;BME280;21185;50.978;13.720;2023-07-16T19:01:45;98285.63;;;26.56;36.75
34979;BME280;21185;50.978;13.720;2023-07-16T19:06:47;98289.88;;;26.47;36.65
34979;BME280;21185;50.978;13.720;2023-07-16T19:11:49;98295.97;;;26.37;36.92
34979;BME280;21185;50.978;13.720;2023-07-16T19:16:52;98300.97;;;26.29;36.98
34979;BME280;21185;50.978;13.720;2023-07-16T19:21:54;98304.41;;;26.14;37.17
34979;BME280;21185;50.978;13.720;2023-07-16T19:26:56;98308.66;;;26.00;37.31
34979;BME280;21185;50.978;13.720;2023-07-16T19:31:59;98307.28;;;25.87;37.55
34979;BME280;21185;50.978;13.720;2023-07-16T19:37:01;98309.09;;;25.76;37.44
34979;BME280;21185;50.978;13.720;2023-07-16T19:42:06;98312.97;;;25.64;37.88
34979;BME280;21185;50.978;13.720;2023-07-16T19:47:08;98320.34;;;25.52;37.87
34979;BME280;21185;50.978;13.720;2023-07-16T19:52:10;98325.34;;;25.43;38.11
34979;BME280;21185;50.978;13.720;2023-07-16T19:57:12;98333.81;;;25.35;37.93
34979;BME280;21185;50.978;13.720;2023-07-16T20:02:14;98325.22;;;25.23;38.20
34979;BME280;21185;50.978;13.720;2023-07-16T20:07:15;98329.16;;;25.15;38.16
34979;BME280;21185;50.978;13.720;2023-07-16T20:12:17;98338.19;;;25.14;37.88
34979;BME280;21185;50.978;13.720;2023-07-16T20:17:20;98339.22;;;25.13;38.01
34979;BME280;21185;50.978;13.720;2023-07-16T20:22:22;98334.69;;;25.08;38.14
34979;BME280;21185;50.978;13.720;2023-07-16T20:27:25;98342.84;;;25.02;38.32
34979;BME280;21185;50.978;13.720;2023-07-16T20:32:27;98342.50;;;24.93;38.17
34979;BME280;21185;50.978;13.720;2023-07-16T20:37:29;98350.41;;;24.88;38.26
34979;BME280;21185;50.978;13.720;2023-07-16T20:42:31;98343.50;;;24.87;38.36
34979;BME280;21185;50.978;13.720;2023-07-16T20:47:32;98354.63;;;24.84;38.65
34979;BME280;21185;50.978;13.720;2023-07-16T20:52:34;98343.41;;;24.77;38.89
34979;BME280;21185;50.978;13.720;2023-07-16T20:57:36;98342.56;;;24.71;38.76
34979;BME280;21185;50.978;13.720;2023-07-16T21:02:38;98338.53;;;24.64;38.89
34979;BME280;21185;50.978;13.720;2023-07-16T21:07:41;98341.63;;;24.56;38.86
34979;BME280;21185;50.978;13.720;2023-07-16T21:12:46;98328.88;;;24.52;38.86
34979;BME280;21185;50.978;13.720;2023-07-16T21:17:47;98333.31;;;24.47;38.86
34979;BME280;21185;50.978;13.720;2023-07-16T21:22:49;98339.66;;;24.46;39.39
34979;BME280;21185;50.978;13.720;2023-07-16T21:27:58;98340.47;;;24.46;39.40
34979;BME280;21185;50.978;13.720;2023-07-16T21:33:00;98346.03;;;24.45;39.43
34979;BME280;21185;50.978;13.720;2023-07-16T21:38:02;98351.56;;;24.43;39.32
34979;BME280;21185;50.978;13.720;2023-07-16T21:43:05;98352.06;;;24.40;39.50
34979;BME280;21185;50.978;13.720;2023-07-16T21:48:12;98355.22;;;24.37;39.70
34979;BME280;21185;50.978;13.720;2023-07-16T21:53:14;98364.72;;;24.33;39.84
34979;BME280;21185;50.978;13.720;2023-07-16T21:58:16;98369.72;;;24.30;39.75
34979;BME280;21185;50.978;13.720;2023-07-16T22:03:18;98372.28;;;24.25;39.82
34979;BME280;21185;50.978;13.720;2023-07-16T22:08:21;98376.50;;;24.20;40.23
34979;BME280;21185;50.978;13.720;2023-07-16T22:13:22;98375.38;;;24.16;40.10
34979;BME280;21185;50.978;13.720;2023-07-16T22:18:24;98383.53;;;24.10;40.26
34979;BME280;21185;50.978;13.720;2023-07-16T22:23:26;98390.34;;;24.06;40.40
34979;BME280;21185;50.978;13.720;2023-07-16T22:28:28;98405.94;;;24.02;40.67
34979;BME280;21185;50.978;13.720;2023-07-16T22:33:30;98407.00;;;24.01;40.55
34979;BME280;21185;50.978;13.720;2023-07-16T22:38:32;98400.91;;;24.01;40.32
34979;BME280;21185;50.978;13.720;2023-07-16T22:43:33;98416.25;;;23.99;40.28
34979;BME280;21185;50.978;13.720;2023-07-16T22:48:38;98410.38;;;23.97;40.49
34979;BME280;21185;50.978;13.720;2023-07-16T22:53:41;98412.41;;;23.89;40.35
34979;BME280;21185;50.978;13.720;2023-07-16T22:58:43;98417.88;;;23.83;40.96
34979;BME280;21185;50.978;13.720;2023-07-16T23:03:45;98408.25;;;23.77;40.82
34979;BME280;21185;50.978;13.720;2023-07-16T23:08:47;98408.75;;;23.74;41.08
34979;BME280;21185;50.978;13.720;2023-07-16T23:13:48;98407.38;;;23.71;40.97
34979;BME280;21185;50.978;13.720;2023-07-16T23:18:50;98417.91;;;23.66;41.03
34979;BME280;21185;50.978;13.720;2023-07-16T23:23:52;98413.09;;;23.63;40.97
34979;BME280;21185;50.978;13.720;2023-07-16T23:28:53;98411.19;;;23.58;41.07
34979;BME280;21185;50.978;13.720;2023-07-16T23:33:55;98402.31;;;23.53;40.91
34979;BME280;21185;50.978;13.720;2023-07-16T23:38:57;98404.66;;;23.49;41.22
34979;BME280;21185;50.978;13.720;2023-07-16T23:43:58;98411.22;;;23.47;41.39
34979;BME280;21185;50.978;13.720;2023-07-16T23:49:00;98405.38;;;23.45;41.30
34979;BME280;21185;50.978;13.720;2023-07-16T23:54:02;98400.56;;;23.42;41.59
34979;BME280;21185;50.978;13.720;2023-07-16T23:59:23;98394.72;;;23.40;41.34
